TimeCST,TemperatureF,Dew PointF,Humidity,Sea Level PressureIn,VisibilityMPH,Wind Direction,Wind SpeedMPH,Gust SpeedMPH,PrecipitationIn,Events,Conditions,WindDirDegrees,DateUTC
12:15 AM,28.9,18.5,65,29.70,10.0,SSW,16.1,-,N/A,,Scattered Clouds,210,2014-01-16 06:15:00
12:35 AM,29.7,19.4,66,29.69,10.0,SSW,16.1,-,N/A,,Clear,210,2014-01-16 06:35:00
12:55 AM,30.4,20.3,66,29.69,10.0,SW,13.8,17.3,N/A,,Mostly Cloudy,220,2014-01-16 06:55:00
1:15 AM,30.9,21.2,67,29.69,10.0,SW,15.0,20.7,N/A,,Overcast,230,2014-01-16 07:15:00
1:35 AM,31.5,22.1,68,29.67,10.0,SW,16.1,20.7,N/A,,Overcast,220,2014-01-16 07:35:00
1:55 AM,32.0,23.0,69,29.62,10.0,SSW,16.1,25.3,N/A,,Overcast,200,2014-01-16 07:55:00
2:15 AM,32.4,23.7,70,29.63,10.0,SW,16.1,24.2,N/A,,Mostly Cloudy,220,2014-01-16 08:15:00
2:35 AM,33.4,24.4,70,29.64,10.0,WSW,13.8,-,N/A,,Clear,240,2014-01-16 08:35:00
2:55 AM,35.4,25.2,66,29.64,10.0,West,12.7,-,N/A,,Clear,260,2014-01-16 08:55:00
3:15 AM,35.4,25.5,67,29.65,10.0,West,11.5,-,N/A,,Scattered Clouds,260,2014-01-16 09:15:00
3:35 AM,36.5,25.7,65,29.64,10.0,WSW,11.5,-,N/A,,Overcast,250,2014-01-16 09:35:00
3:55 AM,36.0,25.7,66,29.63,10.0,WSW,9.2,-,N/A,,Overcast,250,2014-01-16 09:55:00
4:15 AM,34.7,25.3,69,29.63,10.0,WSW,12.7,19.6,N/A,,Scattered Clouds,250,2014-01-16 10:15:00
4:35 AM,35.1,24.8,66,29.63,10.0,West,12.7,-,N/A,,Scattered Clouds,270,2014-01-16 10:35:00
4:55 AM,36.3,24.6,63,29.63,10.0,West,9.2,-,N/A,,Scattered Clouds,270,2014-01-16 10:55:00
5:15 AM,38.3,23.7,56,29.62,10.0,WNW,18.4,25.3,N/A,,Mostly Cloudy,290,2014-01-16 11:15:00
5:35 AM,36.5,23.5,59,29.63,10.0,West,9.2,18.4,N/A,,Mostly Cloudy,260,2014-01-16 11:35:00
5:55 AM,33.4,23.7,68,29.63,10.0,West,12.7,-,N/A,,Scattered Clouds,260,2014-01-16 11:55:00
6:15 AM,35.2,23.0,61,29.63,10.0,West,15.0,-,N/A,,Clear,280,2014-01-16 12:15:00
6:35 AM,35.8,22.6,59,29.63,10.0,West,15.0,21.9,N/A,,Clear,280,2014-01-16 12:35:00
6:55 AM,36.9,22.8,57,29.63,10.0,West,20.7,24.2,N/A,,Mostly Cloudy,280,2014-01-16 12:55:00
7:15 AM,36.3,22.6,58,29.64,10.0,West,13.8,20.7,N/A,,Overcast,270,2014-01-16 13:15:00
7:35 AM,36.0,22.8,59,29.64,10.0,West,13.8,18.4,N/A,,Overcast,270,2014-01-16 13:35:00
7:55 AM,36.7,23.4,59,29.65,10.0,West,18.4,23.0,N/A,,Overcast,270,2014-01-16 13:55:00
8:15 AM,37.2,24.3,60,29.66,10.0,West,15.0,21.9,N/A,,Overcast,270,2014-01-16 14:15:00
8:35 AM,37.4,25.9,63,29.66,10.0,West,23.0,28.8,N/A,,Overcast,280,2014-01-16 14:35:00
8:55 AM,37.4,25.5,62,29.65,10.0,WNW,28.8,39.1,N/A,,Overcast,290,2014-01-16 14:55:00
9:15 AM,38.3,18.9,46,29.67,10.0,WNW,28.8,44.9,N/A,,Scattered Clouds,300,2014-01-16 15:15:00
9:35 AM,38.3,18.0,44,29.66,10.0,WNW,28.8,43.7,N/A,,Scattered Clouds,300,2014-01-16 15:35:00
9:55 AM,37.9,18.5,46,29.67,10.0,WNW,31.1,38.0,N/A,,Mostly Cloudy,290,2014-01-16 15:55:00
10:15 AM,37.8,18.5,46,29.69,10.0,WNW,27.6,42.6,N/A,,Overcast,300,2014-01-16 16:15:00
10:35 AM,36.7,18.5,48,29.69,10.0,WNW,28.8,38.0,N/A,,Overcast,300,2014-01-16 16:35:00
10:55 AM,36.5,18.7,49,29.69,10.0,WNW,28.8,34.5,N/A,,Overcast,290,2014-01-16 16:55:00
11:15 AM,36.5,18.7,49,29.70,10.0,WNW,20.7,38.0,N/A,,Overcast,300,2014-01-16 17:15:00
11:35 AM,35.6,19.0,51,29.70,10.0,WNW,27.6,34.5,N/A,,Overcast,300,2014-01-16 17:35:00
11:55 AM,35.8,18.3,49,29.69,10.0,WNW,24.2,33.4,N/A,,Overcast,300,2014-01-16 17:55:00
12:15 PM,36.0,18.3,49,29.69,10.0,WNW,24.2,34.5,N/A,,Overcast,300,2014-01-16 18:15:00
12:35 PM,35.2,19.8,53,29.69,10.0,WNW,17.3,27.6,N/A,,Overcast,290,2014-01-16 18:35:00
12:55 PM,33.6,22.6,64,29.69,7.0,West,13.8,-,N/A,,Overcast,280,2014-01-16 18:55:00
1:15 PM,33.3,25.2,72,29.69,10.0,West,12.7,-,N/A,,Overcast,270,2014-01-16 19:15:00
1:35 PM,34.2,25.5,71,29.69,10.0,West,12.7,17.3,N/A,,Overcast,280,2014-01-16 19:35:00
1:55 PM,33.4,27.1,78,29.69,5.0,West,12.7,-,N/A,Snow,Light Snow,270,2014-01-16 19:55:00
2:35 PM,33.6,28.9,83,29.68,4.0,West,18.4,24.2,N/A,Snow,Light Snow,260,2014-01-16 20:35:00
2:55 PM,32.9,29.7,88,29.68,4.0,West,15.0,20.7,N/A,Snow,Light Snow,270,2014-01-16 20:55:00
3:15 PM,32.2,28.4,86,29.67,10.0,West,12.7,-,N/A,,Scattered Clouds,270,2014-01-16 21:15:00
3:35 PM,34.7,29.3,81,29.66,10.0,West,13.8,18.4,N/A,,Mostly Cloudy,260,2014-01-16 21:35:00
3:55 PM,32.7,28.8,85,29.68,0.8,West,26.5,40.3,N/A,,Overcast,280,2014-01-16 21:55:00
4:15 PM,31.3,24.3,75,29.69,10.0,WNW,21.9,36.8,N/A,,Mostly Cloudy,300,2014-01-16 22:15:00
4:35 PM,30.9,23.0,72,29.69,10.0,WNW,27.6,34.5,N/A,,Mostly Cloudy,290,2014-01-16 22:35:00
4:55 PM,25.3,19.8,79,29.73,1.5,NW,41.4,49.5,N/A,Snow,Light Snow,310,2014-01-16 22:55:00
5:15 PM,19.8,14.0,78,29.79,2.5,NW,24.2,42.6,N/A,Snow,Light Snow,320,2014-01-16 23:15:00
5:35 PM,18.1,13.1,81,29.81,1.0,NW,24.2,36.8,N/A,Snow,Light Snow,310,2014-01-16 23:35:00
5:55 PM,16.7,9.3,73,29.83,4.0,WNW,31.1,41.4,N/A,Snow,Light Snow,300,2014-01-16 23:55:00
6:15 PM,15.8,6.6,67,29.84,10.0,NW,27.6,38.0,N/A,,Overcast,310,2014-01-17 00:15:00
6:35 PM,14.5,6.3,70,29.86,10.0,WNW,26.5,34.5,N/A,,Overcast,300,2014-01-17 00:35:00
6:55 PM,13.1,7.5,78,29.87,4.0,WNW,26.5,38.0,N/A,Snow,Light Snow,300,2014-01-17 00:55:00
7:15 PM,12.2,5.0,73,29.88,7.0,WNW,20.7,35.7,N/A,,Overcast,300,2014-01-17 01:15:00
7:35 PM,11.3,4.8,75,29.89,7.0,WNW,23.0,28.8,N/A,,Overcast,300,2014-01-17 01:35:00
7:55 PM,10.8,1.9,68,29.91,10.0,NW,18.4,32.2,N/A,,Overcast,310,2014-01-17 01:55:00
8:15 PM,10.0,0.5,65,29.91,10.0,NW,24.2,33.4,N/A,,Overcast,320,2014-01-17 02:15:00
8:35 PM,10.0,1.0,67,29.92,10.0,NW,21.9,27.6,N/A,,Overcast,310,2014-01-17 02:35:00
8:55 PM,10.0,3.4,74,29.92,7.0,NW,16.1,21.9,N/A,,Overcast,310,2014-01-17 02:55:00
9:15 PM,9.5,1.0,69,29.93,10.0,NW,24.2,32.2,N/A,,Overcast,310,2014-01-17 03:15:00
9:35 PM,9.5,2.5,73,29.94,10.0,NW,20.7,24.2,N/A,,Overcast,310,2014-01-17 03:35:00
9:55 PM,9.1,2.3,74,29.94,7.0,NW,23.0,28.8,N/A,,Overcast,310,2014-01-17 03:55:00
10:15 PM,9.0,1.9,73,29.94,10.0,NW,24.2,32.2,N/A,,Overcast,310,2014-01-17 04:15:00
10:35 PM,9.0,-0.2,66,29.94,10.0,NW,20.7,25.3,N/A,,Overcast,320,2014-01-17 04:35:00
10:55 PM,9.1,1.0,70,29.95,10.0,WNW,12.7,25.3,N/A,,Overcast,300,2014-01-17 04:55:00
11:15 PM,9.1,3.6,78,29.94,5.0,WNW,13.8,19.6,N/A,,Haze,300,2014-01-17 05:15:00
11:35 PM,9.5,1.2,69,29.94,10.0,NW,23.0,27.6,N/A,,Overcast,310,2014-01-17 05:35:00
11:55 PM,9.3,1.8,71,29.94,10.0,NW,17.3,21.9,N/A,,Overcast,310,2014-01-17 05:55:00